sensor_id;sensor_type;location;lat;lon;timestamp;pressure;altitude;pressure_sealevel;temperature;humidity
26192;BME280;13935;55.672;37.764;2022-10-28T00:00:45;100766.63;;;5.94;100.00
26192;BME280;13935;55.672;37.764;2022-10-28T00:01:48;100754.72;;;6.10;100.00
26192;BME280;13935;55.672;37.764;2022-10-28T00:02:52;100764.53;;;6.11;100.00
26192;BME280;13935;55.672;37.764;2022-10-28T00:03:57;100768.09;;;5.91;100.00
26192;BME280;13935;55.672;37.764;2022-10-28T00:05:00;100765.63;;;5.98;100.00
26192;BME280;13935;55.672;37.764;2022-10-28T00:06:07;100761.06;;;6.02;100.00
26192;BME280;13935;55.672;37.764;2022-10-28T00:07:09;100760.53;;;6.09;100.00
26192;BME280;13935;55.672;37.764;2022-10-28T00:08:12;100763.97;;;6.06;100.00
26192;BME280;13935;55.672;37.764;2022-10-28T00:09:14;100757.91;;;6.12;100.00
26192;BME280;13935;55.672;37.764;2022-10-28T00:10:17;100763.03;;;6.22;100.00
26192;BME280;13935;55.672;37.764;2022-10-28T00:11:28;100763.97;;;6.06;100.00
26192;BME280;13935;55.672;37.764;2022-10-28T00:12:37;100760.72;;;5.83;100.00
26192;BME280;13935;55.672;37.764;2022-10-28T00:13:42;100758.53;;;5.68;100.00
26192;BME280;13935;55.672;37.764;2022-10-28T00:14:44;100766.88;;;5.80;100.00
26192;BME280;13935;55.672;37.764;2022-10-28T00:15:46;100765.94;;;5.76;100.00
26192;BME280;13935;55.672;37.764;2022-10-28T00:16:49;100774.94;;;5.85;100.00
26192;BME280;13935;55.672;37.764;2022-10-28T00:17:51;100769.69;;;5.92;100.00
26192;BME280;13935;55.672;37.764;2022-10-28T00:18:56;100769.16;;;5.78;100.00
26192;BME280;13935;55.672;37.764;2022-10-28T00:19:59;100780.72;;;5.84;100.00
26192;BME280;13935;55.672;37.764;2022-10-28T00:21:04;100770.66;;;5.96;100.00
26192;BME280;13935;55.672;37.764;2022-10-28T00:22:07;100768.56;;;5.93;100.00
26192;BME280;13935;55.672;37.764;2022-10-28T00:23:09;100766.91;;;6.01;100.00
26192;BME280;13935;55.672;37.764;2022-10-28T00:24:12;100772.25;;;5.97;100.00
26192;BME280;13935;55.672;37.764;2022-10-28T00:25:15;100767.28;;;5.91;100.00
26192;BME280;13935;55.672;37.764;2022-10-28T00:26:22;100769.25;;;5.90;100.00
26192;BME280;13935;55.672;37.764;2022-10-28T00:27:25;100767.28;;;5.91;100.00
26192;BME280;13935;55.672;37.764;2022-10-28T00:28:32;100759.38;;;5.89;100.00
26192;BME280;13935;55.672;37.764;2022-10-28T00:29:34;100760.88;;;5.87;100.00
26192;BME280;13935;55.672;37.764;2022-10-28T00:30:38;100759.88;;;5.91;100.00
26192;BME280;13935;55.672;37.764;2022-10-28T00:31:41;100759.66;;;5.96;100.00
26192;BME280;13935;55.672;37.764;2022-10-28T00:32:43;100746.72;;;5.97;100.00
26192;BME280;13935;55.672;37.764;2022-10-28T00:33:47;100749.47;;;5.97;100.00
26192;BME280;13935;55.672;37.764;2022-10-28T00:34:50;100759.53;;;5.93;100.00
26192;BME280;13935;55.672;37.764;2022-10-28T00:35:52;100765.53;;;5.86;100.00
26192;BME280;13935;55.672;37.764;2022-10-28T00:36:54;100757.56;;;5.93;100.00
26192;BME280;13935;55.672;37.764;2022-10-28T00:37:58;100766.78;;;5.97;100.00
26192;BME280;13935;55.672;37.764;2022-10-28T00:39:01;100762.22;;;6.01;100.00
26192;BME280;13935;55.672;37.764;2022-10-28T00:40:04;100765.69;;;6.10;100.00
26192;BME280;13935;55.672;37.764;2022-10-28T00:41:10;100761.13;;;6.14;100.00
26192;BME280;13935;55.672;37.764;2022-10-28T00:42:18;100766.03;;;6.09;100.00
26192;BME280;13935;55.672;37.764;2022-10-28T00:43:57;100762.56;;;6.00;100.00
26192;BME280;13935;55.672;37.764;2022-10-28T00:45:01;100765.28;;;6.00;100.00
26192;BME280;13935;55.672;37.764;2022-10-28T00:46:14;100757.63;;;6.05;100.00
26192;BME280;13935;55.672;37.764;2022-10-28T00:48:39;100763.09;;;6.14;100.00
26192;BME280;13935;55.672;37.764;2022-10-28T00:49:45;100763.47;;;6.04;100.00
26192;BME280;13935;55.672;37.764;2022-10-28T00:50:49;100764.47;;;5.99;100.00
26192;BME280;13935;55.672;37.764;2022-10-28T00:52:05;100760.38;;;6.05;100.00
26192;BME280;13935;55.672;37.764;2022-10-28T00:53:14;100758.59;;;6.09;100.00
26192;BME280;13935;55.672;37.764;2022-10-28T00:54:19;100753.75;;;6.06;100.00
26192;BME280;13935;55.672;37.764;2022-10-28T00:55:24;100761.56;;;6.04;100.00
26192;BME280;13935;55.672;37.764;2022-10-28T00:56:31;100759.25;;;6.06;100.00
26192;BME280;13935;55.672;37.764;2022-10-28T00:57:37;100753.03;;;5.97;100.00
26192;BME280;13935;55.672;37.764;2022-10-28T00:58:44;100749.28;;;6.02;100.00
26192;BME280;13935;55.672;37.764;2022-10-28T00:59:52;100751.41;;;6.17;100.00
26192;BME280;13935;55.672;37.764;2022-10-28T01:00:55;100752.16;;;6.05;100.00
26192;BME280;13935;55.672;37.764;2022-10-28T01:02:01;100750.16;;;6.14;100.00
26192;BME280;13935;55.672;37.764;2022-10-28T01:03:07;100748.16;;;6.23;100.00
26192;BME280;13935;55.672;37.764;2022-10-28T01:04:12;100751.28;;;6.13;100.00
26192;BME280;13935;55.672;37.764;2022-10-28T01:05:25;100758.38;;;6.14;100.00
26192;BME280;13935;55.672;37.764;2022-10-28T01:06:27;100756.38;;;6.23;100.00
26192;BME280;13935;55.672;37.764;2022-10-28T01:07:30;100757.31;;;6.27;100.00
26192;BME280;13935;55.672;37.764;2022-10-28T01:08:34;100748.94;;;6.24;100.00
26192;BME280;13935;55.672;37.764;2022-10-28T01:09:39;100757.78;;;6.29;100.00
26192;BME280;13935;55.672;37.764;2022-10-28T01:11:11;100756.25;;;6.20;100.00
26192;BME280;13935;55.672;37.764;2022-10-28T01:12:55;100752.22;;;6.17;100.00
26192;BME280;13935;55.672;37.764;2022-10-28T01:18:06;100746.00;;;6.08;100.00
26192;BME280;13935;55.672;37.764;2022-10-28T01:22:36;100738.97;;;5.99;100.00
26192;BME280;13935;55.672;37.764;2022-10-28T01:30:23;100749.75;;;6.04;100.00
26192;BME280;13935;55.672;37.764;2022-10-28T01:33:03;100764.41;;;6.08;100.00
26192;BME280;13935;55.672;37.764;2022-10-28T01:34:28;100757.63;;;6.05;100.00
26192;BME280;13935;55.672;37.764;2022-10-28T01:37:13;100759.72;;;6.08;100.00
26192;BME280;13935;55.672;37.764;2022-10-28T01:39:49;100754.44;;;6.03;100.00
26192;BME280;13935;55.672;37.764;2022-10-28T01:41:12;100754.72;;;6.10;100.00
26192;BME280;13935;55.672;37.764;2022-10-28T01:43:35;100753.75;;;6.06;100.00
26192;BME280;13935;55.672;37.764;2022-10-28T01:46:00;100749.66;;;6.12;100.00
26192;BME280;13935;55.672;37.764;2022-10-28T01:47:13;100746.78;;;6.09;100.00
26192;BME280;13935;55.672;37.764;2022-10-28T01:48:32;100748.81;;;6.00;100.00
26192;BME280;13935;55.672;37.764;2022-10-28T01:49:58;100751.97;;;6.10;100.00
26192;BME280;13935;55.672;37.764;2022-10-28T01:51:09;100739.81;;;6.11;100.00
26192;BME280;13935;55.672;37.764;2022-10-28T01:52:15;100740.09;;;6.18;100.00
26192;BME280;13935;55.672;37.764;2022-10-28T01:53:23;100745.31;;;6.11;100.00
26192;BME280;13935;55.672;37.764;2022-10-28T01:54:30;100741.22;;;6.17;100.00
26192;BME280;13935;55.672;37.764;2022-10-28T01:55:40;100748.41;;;6.10;100.00
26192;BME280;13935;55.672;37.764;2022-10-28T01:56:45;100749.88;;;6.07;100.00
26192;BME280;13935;55.672;37.764;2022-10-28T01:57:49;100745.31;;;6.11;100.00
26192;BME280;13935;55.672;37.764;2022-10-28T01:58:54;100746.94;;;6.12;100.00
26192;BME280;13935;55.672;37.764;2022-10-28T01:59:58;100743.31;;;6.20;100.00
26192;BME280;13935;55.672;37.764;2022-10-28T02:01:04;100740.69;;;6.24;100.00
26192;BME280;13935;55.672;37.764;2022-10-28T02:02:08;100746.81;;;6.29;100.00
26192;BME280;13935;55.672;37.764;2022-10-28T02:03:15;100739.69;;;6.28;100.00
26192;BME280;13935;55.672;37.764;2022-10-28T02:04:18;100742.88;;;6.30;100.00
26192;BME280;13935;55.672;37.764;2022-10-28T02:06:43;100742.34;;;6.37;100.00
26192;BME280;13935;55.672;37.764;2022-10-28T02:07:55;100731.50;;;6.40;100.00
26192;BME280;13935;55.672;37.764;2022-10-28T02:09:45;100737.66;;;6.37;100.00
26192;BME280;13935;55.672;37.764;2022-10-28T02:11:13;100736.03;;;6.36;100.00
26192;BME280;13935;55.672;37.764;2022-10-28T02:12:23;100742.22;;;6.33;100.00
26192;BME280;13935;55.672;37.764;2022-10-28T02:13:40;100735.41;;;6.19;100.00
26192;BME280;13935;55.672;37.764;2022-10-28T02:19:31;100748.06;;;6.11;100.00
26192;BME280;13935;55.672;37.764;2022-10-28T02:20:58;100750.56;;;6.04;100.00
26192;BME280;13935;55.672;37.764;2022-10-28T02:22:30;100746.66;;;6.05;100.00
26192;BME280;13935;55.672;37.764;2022-10-28T02:23:41;100756.56;;;6.18;100.00
26192;BME280;13935;55.672;37.764;2022-10-28T02:26:35;100755.72;;;6.06;100.00
26192;BME280;13935;55.672;37.764;2022-10-28T02:27:43;100762.91;;;5.98;100.00
26192;BME280;13935;55.672;37.764;2022-10-28T02:29:14;100750.66;;;6.08;100.00
26192;BME280;13935;55.672;37.764;2022-10-28T02:30:18;100756.56;;;6.18;100.00
26192;BME280;13935;55.672;37.764;2022-10-28T02:31:39;100757.53;;;6.22;100.00
26192;BME280;13935;55.672;37.764;2022-10-28T02:32:50;100757.84;;;6.21;100.00
26192;BME280;13935;55.672;37.764;2022-10-28T02:33:59;100752.63;;;6.07;100.00
26192;BME280;13935;55.672;37.764;2022-10-28T02:35:09;100759.53;;;6.13;100.00
26192;BME280;13935;55.672;37.764;2022-10-28T02:36:14;100750.34;;;6.09;100.00
26192;BME280;13935;55.672;37.764;2022-10-28T02:37:29;100757.31;;;6.27;100.00
26192;BME280;13935;55.672;37.764;2022-10-28T02:38:39;100752.28;;;6.29;100.00
26192;BME280;13935;55.672;37.764;2022-10-28T02:39:51;100745.44;;;6.35;100.00
26192;BME280;13935;55.672;37.764;2022-10-28T02:40:58;100750.47;;;6.33;100.00
26192;BME280;13935;55.672;37.764;2022-10-28T02:42:06;100745.44;;;6.35;100.00
26192;BME280;13935;55.672;37.764;2022-10-28T02:43:11;100750.72;;;6.40;100.00
26192;BME280;13935;55.672;37.764;2022-10-28T02:44:25;100742.88;;;6.30;100.00
26192;BME280;13935;55.672;37.764;2022-10-28T02:45:40;100738.56;;;6.29;100.00
26192;BME280;13935;55.672;37.764;2022-10-28T02:46:46;100738.75;;;6.24;100.00
26192;BME280;13935;55.672;37.764;2022-10-28T02:47:54;100748.81;;;6.20;100.00
26192;BME280;13935;55.672;37.764;2022-10-28T02:49:03;100741.75;;;6.31;100.00
26192;BME280;13935;55.672;37.764;2022-10-28T02:50:11;100743.16;;;6.37;100.00
26192;BME280;13935;55.672;37.764;2022-10-28T02:52:05;100743.84;;;6.34;100.00
26192;BME280;13935;55.672;37.764;2022-10-28T02:53:14;100744.66;;;6.14;100.00
26192;BME280;13935;55.672;37.764;2022-10-28T02:54:23;100746.28;;;6.15;100.00
26192;BME280;13935;55.672;37.764;2022-10-28T02:55:32;100738.88;;;6.28;100.00
26192;BME280;13935;55.672;37.764;2022-10-28T02:56:39;100740.47;;;6.29;100.00
26192;BME280;13935;55.672;37.764;2022-10-28T02:57:44;100736.47;;;6.26;100.00
26192;BME280;13935;55.672;37.764;2022-10-28T02:58:51;100735.34;;;6.27;100.00
26192;BME280;13935;55.672;37.764;2022-10-28T02:59:56;100739.00;;;6.31;100.00
26192;BME280;13935;55.672;37.764;2022-10-28T03:00:59;100742.38;;;6.16;100.00
26192;BME280;13935;55.672;37.764;2022-10-28T03:02:01;100741.75;;;6.31;100.00
26192;BME280;13935;55.672;37.764;2022-10-28T03:03:04;100730.75;;;6.31;100.00
26192;BME280;13935;55.672;37.764;2022-10-28T03:04:06;100742.88;;;6.30;100.00
26192;BME280;13935;55.672;37.764;2022-10-28T03:05:09;100744.63;;;6.35;100.00
26192;BME280;13935;55.672;37.764;2022-10-28T03:06:15;100738.91;;;6.39;100.00
26192;BME280;13935;55.672;37.764;2022-10-28T03:07:17;100741.22;;;6.38;100.00
26192;BME280;13935;55.672;37.764;2022-10-28T03:08:20;100740.44;;;6.49;100.00
26192;BME280;13935;55.672;37.764;2022-10-28T03:09:22;100741.78;;;6.43;100.00
26192;BME280;13935;55.672;37.764;2022-10-28T03:10:24;100746.41;;;6.51;100.00
26192;BME280;13935;55.672;37.764;2022-10-28T03:11:27;100746.53;;;6.22;100.00
26192;BME280;13935;55.672;37.764;2022-10-28T03:12:31;100758.03;;;6.36;100.00
26192;BME280;13935;55.672;37.764;2022-10-28T03:13:35;100754.84;;;6.34;100.00
26192;BME280;13935;55.672;37.764;2022-10-28T03:14:39;100749.72;;;6.24;100.00
26192;BME280;13935;55.672;37.764;2022-10-28T03:15:45;100746.13;;;6.32;100.00
26192;BME280;13935;55.672;37.764;2022-10-28T03:16:48;100747.13;;;6.28;100.00
26192;BME280;13935;55.672;37.764;2022-10-28T03:17:50;100750.47;;;6.33;100.00
26192;BME280;13935;55.672;37.764;2022-10-28T03:18:53;100746.31;;;6.27;100.00
26192;BME280;13935;55.672;37.764;2022-10-28T03:19:58;100748.66;;;6.37;100.00
26192;BME280;13935;55.672;37.764;2022-10-28T03:21:00;100743.31;;;6.20;100.00
26192;BME280;13935;55.672;37.764;2022-10-28T03:22:03;100752.81;;;6.23;100.00
26192;BME280;13935;55.672;37.764;2022-10-28T03:23:05;100752.34;;;6.21;100.00
26192;BME280;13935;55.672;37.764;2022-10-28T03:24:08;100747.19;;;6.19;100.00
26192;BME280;13935;55.672;37.764;2022-10-28T03:25:11;100746.59;;;6.34;100.00
26192;BME280;13935;55.672;37.764;2022-10-28T03:26:13;100751.13;;;6.30;100.00
26192;BME280;13935;55.672;37.764;2022-10-28T03:27:17;100744.28;;;6.36;100.00
26192;BME280;13935;55.672;37.764;2022-10-28T03:28:19;100754.34;;;6.32;100.00
26192;BME280;13935;55.672;37.764;2022-10-28T03:29:23;100744.09;;;6.21;100.00
26192;BME280;13935;55.672;37.764;2022-10-28T03:30:26;100747.03;;;6.36;100.00
26192;BME280;13935;55.672;37.764;2022-10-28T03:31:28;100753.69;;;6.35;100.00
26192;BME280;13935;55.672;37.764;2022-10-28T03:32:30;100748.00;;;6.40;100.00
26192;BME280;13935;55.672;37.764;2022-10-28T03:33:32;100747.16;;;6.39;100.00
26192;BME280;13935;55.672;37.764;2022-10-28T03:34:36;100741.78;;;6.43;100.00
26192;BME280;13935;55.672;37.764;2022-10-28T03:35:38;100742.22;;;6.33;100.00
26192;BME280;13935;55.672;37.764;2022-10-28T03:36:40;100737.09;;;6.32;100.00
26192;BME280;13935;55.672;37.764;2022-10-28T03:37:44;100739.09;;;6.23;100.00
26192;BME280;13935;55.672;37.764;2022-10-28T03:38:46;100740.41;;;6.37;100.00
26192;BME280;13935;55.672;37.764;2022-10-28T03:39:49;100739.97;;;6.35;100.00
26192;BME280;13935;55.672;37.764;2022-10-28T03:40:51;100733.78;;;6.38;100.00
26192;BME280;13935;55.672;37.764;2022-10-28T03:41:56;100741.34;;;6.41;100.00
26192;BME280;13935;55.672;37.764;2022-10-28T03:43:01;100743.19;;;6.49;100.00
26192;BME280;13935;55.672;37.764;2022-10-28T03:44:05;100746.28;;;6.47;100.00
26192;BME280;13935;55.672;37.764;2022-10-28T03:45:08;100741.94;;;6.46;100.00
26192;BME280;13935;55.672;37.764;2022-10-28T03:46:11;100746.81;;;6.29;100.00
26192;BME280;13935;55.672;37.764;2022-10-28T03:47:13;100745.03;;;6.45;100.00
26192;BME280;13935;55.672;37.764;2022-10-28T03:48:15;100738.84;;;6.48;100.00
26192;BME280;13935;55.672;37.764;2022-10-28T03:49:18;100738.38;;;6.46;100.00
26192;BME280;13935;55.672;37.764;2022-10-28T03:50:20;100741.41;;;6.53;100.00
26192;BME280;13935;55.672;37.764;2022-10-28T03:51:22;100738.59;;;6.41;100.00
26192;BME280;13935;55.672;37.764;2022-10-28T03:52:24;100731.75;;;6.47;100.00
26192;BME280;13935;55.672;37.764;2022-10-28T03:53:27;100729.44;;;6.49;100.00
26192;BME280;13935;55.672;37.764;2022-10-28T03:54:32;100728.53;;;6.45;100.00
26192;BME280;13935;55.672;37.764;2022-10-28T03:55:35;100729.44;;;6.49;100.00
26192;BME280;13935;55.672;37.764;2022-10-28T03:56:37;100726.03;;;6.52;100.00
26192;BME280;13935;55.672;37.764;2022-10-28T03:57:41;100720.31;;;6.57;100.00
26192;BME280;13935;55.672;37.764;2022-10-28T03:58:46;100718.94;;;6.51;100.00
26192;BME280;13935;55.672;37.764;2022-10-28T03:59:49;100719.97;;;6.58;100.00
26192;BME280;13935;55.672;37.764;2022-10-28T04:00:53;100725.47;;;6.58;100.00
26192;BME280;13935;55.672;37.764;2022-10-28T04:01:57;100715.09;;;6.64;100.00
26192;BME280;13935;55.672;37.764;2022-10-28T04:03:00;100720.56;;;6.64;100.00
26192;BME280;13935;55.672;37.764;2022-10-28T04:04:02;100717.47;;;6.65;100.00
26192;BME280;13935;55.672;37.764;2022-10-28T04:05:05;100722.53;;;6.63;100.00
26192;BME280;13935;55.672;37.764;2022-10-28T04:06:08;100716.34;;;6.66;100.00
26192;BME280;13935;55.672;37.764;2022-10-28T04:07:13;100730.19;;;6.58;100.00
26192;BME280;13935;55.672;37.764;2022-10-28T04:08:16;100734.03;;;6.45;100.00
26192;BME280;13935;55.672;37.764;2022-10-28T04:09:19;100731.06;;;6.50;100.00
26192;BME280;13935;55.672;37.764;2022-10-28T04:10:24;100733.59;;;6.55;100.00
26192;BME280;13935;55.672;37.764;2022-10-28T04:11:29;100728.31;;;6.50;100.00
26192;BME280;13935;55.672;37.764;2022-10-28T04:12:32;100728.78;;;6.52;100.00
26192;BME280;13935;55.672;37.764;2022-10-28T04:13:34;100729.44;;;6.49;100.00
26192;BME280;13935;55.672;37.764;2022-10-28T04:14:38;100721.25;;;6.61;100.00
26192;BME280;13935;55.672;37.764;2022-10-28T04:15:40;100727.69;;;6.65;100.00
26192;BME280;13935;55.672;37.764;2022-10-28T04:16:46;100730.06;;;6.54;100.00
26192;BME280;13935;55.672;37.764;2022-10-28T04:17:48;100729.72;;;6.56;100.00
26192;BME280;13935;55.672;37.764;2022-10-28T04:18:51;100729.94;;;6.51;100.00
26192;BME280;13935;55.672;37.764;2022-10-28T04:19:55;100727.84;;;6.48;100.00
26192;BME280;13935;55.672;37.764;2022-10-28T04:20:57;100726.41;;;6.30;100.00
26192;BME280;13935;55.672;37.764;2022-10-28T04:21:59;100731.25;;;6.33;100.00
26192;BME280;13935;55.672;37.764;2022-10-28T04:23:01;100724.81;;;6.29;100.00
26192;BME280;13935;55.672;37.764;2022-10-28T04:24:05;100726.78;;;6.40;100.00
26192;BME280;13935;55.672;37.764;2022-10-28T04:25:07;100722.66;;;6.35;100.00
26192;BME280;13935;55.672;37.764;2022-10-28T04:26:09;100726.88;;;6.32;100.00
26192;BME280;13935;55.672;37.764;2022-10-28T04:27:11;100714.31;;;6.43;100.00
26192;BME280;13935;55.672;37.764;2022-10-28T04:28:15;100719.25;;;6.38;100.00
26192;BME280;13935;55.672;37.764;2022-10-28T04:29:18;100720.06;;;6.50;100.00
26192;BME280;13935;55.672;37.764;2022-10-28T04:30:20;100712.31;;;6.52;100.00
26192;BME280;13935;55.672;37.764;2022-10-28T04:31:23;100720.75;;;6.47;100.00
26192;BME280;13935;55.672;37.764;2022-10-28T04:32:25;100723.22;;;6.28;100.00
26192;BME280;13935;55.672;37.764;2022-10-28T04:33:27;100716.16;;;6.39;100.00
26192;BME280;13935;55.672;37.764;2022-10-28T04:34:30;100723.09;;;6.25;100.00
26192;BME280;13935;55.672;37.764;2022-10-28T04:35:32;100728.44;;;6.21;100.00
26192;BME280;13935;55.672;37.764;2022-10-28T04:36:34;100725.91;;;6.16;100.00
26192;BME280;13935;55.672;37.764;2022-10-28T04:37:36;100730.72;;;6.19;100.00
26192;BME280;13935;55.672;37.764;2022-10-28T04:38:38;100733.50;;;6.31;100.00
26192;BME280;13935;55.672;37.764;2022-10-28T04:39:40;100719.81;;;6.43;100.00
26192;BME280;13935;55.672;37.764;2022-10-28T04:40:46;100717.28;;;6.38;100.00
26192;BME280;13935;55.672;37.764;2022-10-28T04:41:53;100726.13;;;6.43;100.00
26192;BME280;13935;55.672;37.764;2022-10-28T04:42:55;100718.91;;;6.39;100.00
26192;BME280;13935;55.672;37.764;2022-10-28T04:43:58;100715.72;;;6.49;100.00
26192;BME280;13935;55.672;37.764;2022-10-28T04:45:00;100712.84;;;6.45;100.00
26192;BME280;13935;55.672;37.764;2022-10-28T04:46:03;100710.13;;;6.57;100.00
26192;BME280;13935;55.672;37.764;2022-10-28T04:47:06;100705.06;;;6.47;100.00
26192;BME280;13935;55.672;37.764;2022-10-28T04:48:09;100724.09;;;6.52;100.00
26192;BME280;13935;55.672;37.764;2022-10-28T04:49:12;100717.09;;;6.55;100.00
26192;BME280;13935;55.672;37.764;2022-10-28T04:50:37;100711.59;;;6.55;100.00
26192;BME280;13935;55.672;37.764;2022-10-28T04:51:48;100715.97;;;6.56;100.00
26192;BME280;13935;55.672;37.764;2022-10-28T04:52:50;100708.53;;;6.56;100.00
26192;BME280;13935;55.672;37.764;2022-10-28T04:53:53;100711.63;;;6.67;100.00
26192;BME280;13935;55.672;37.764;2022-10-28T04:54:58;100717.19;;;6.46;100.00
26192;BME280;13935;55.672;37.764;2022-10-28T04:56:02;100721.16;;;6.37;100.00
26192;BME280;13935;55.672;37.764;2022-10-28T04:57:06;100718.91;;;6.39;100.00
26192;BME280;13935;55.672;37.764;2022-10-28T04:58:09;100719.03;;;6.42;100.00
26192;BME280;13935;55.672;37.764;2022-10-28T04:59:13;100712.31;;;6.52;100.00
26192;BME280;13935;55.672;37.764;2022-10-28T05:00:19;100720.06;;;6.50;100.00
26192;BME280;13935;55.672;37.764;2022-10-28T05:01:22;100703.59;;;6.50;100.00
26192;BME280;13935;55.672;37.764;2022-10-28T05:02:26;100714.34;;;6.55;100.00
26192;BME280;13935;55.672;37.764;2022-10-28T05:03:28;100718.31;;;6.66;100.00
26192;BME280;13935;55.672;37.764;2022-10-28T05:04:31;100709.59;;;6.64;100.00
26192;BME280;13935;55.672;37.764;2022-10-28T05:05:33;100715.75;;;6.61;100.00
26192;BME280;13935;55.672;37.764;2022-10-28T05:06:36;100713.59;;;6.66;100.00
26192;BME280;13935;55.672;37.764;2022-10-28T05:07:39;100711.44;;;6.72;100.00
26192;BME280;13935;55.672;37.764;2022-10-28T05:08:42;100714.81;;;6.57;100.00
26192;BME280;13935;55.672;37.764;2022-10-28T05:09:44;100720.22;;;6.65;100.00
26192;BME280;13935;55.672;37.764;2022-10-28T05:10:47;100718.16;;;6.50;100.00
26192;BME280;13935;55.672;37.764;2022-10-28T05:11:52;100720.66;;;6.55;100.00
26192;BME280;13935;55.672;37.764;2022-10-28T05:13:01;100728.53;;;6.45;100.00
26192;BME280;13935;55.672;37.764;2022-10-28T05:14:05;100728.56;;;6.57;100.00
26192;BME280;13935;55.672;37.764;2022-10-28T05:15:13;100730.41;;;6.53;100.00
26192;BME280;13935;55.672;37.764;2022-10-28T05:16:20;100727.81;;;6.36;100.00
26192;BME280;13935;55.672;37.764;2022-10-28T05:17:29;100727.84;;;6.48;100.00
26192;BME280;13935;55.672;37.764;2022-10-28T05:18:44;100718.84;;;6.59;100.00
26192;BME280;13935;55.672;37.764;2022-10-28T05:19:50;100724.69;;;6.58;100.00
26192;BME280;13935;55.672;37.764;2022-10-28T05:20:58;100723.66;;;6.62;100.00
26192;BME280;13935;55.672;37.764;2022-10-28T05:22:18;100720.69;;;6.67;100.00
26192;BME280;13935;55.672;37.764;2022-10-28T05:23:22;100724.72;;;6.70;100.00
26192;BME280;13935;55.672;37.764;2022-10-28T05:24:31;100725.50;;;6.70;100.00
26192;BME280;13935;55.672;37.764;2022-10-28T05:25:35;100720.81;;;6.71;100.00
26192;BME280;13935;55.672;37.764;2022-10-28T05:26:41;100719.00;;;6.87;100.00
26192;BME280;13935;55.672;37.764;2022-10-28T05:27:44;100715.81;;;6.85;100.00
26192;BME280;13935;55.672;37.764;2022-10-28T05:28:54;100714.78;;;6.89;100.00
26192;BME280;13935;55.672;37.764;2022-10-28T05:30:00;100711.00;;;6.94;100.00
26192;BME280;13935;55.672;37.764;2022-10-28T05:31:20;100712.63;;;6.95;100.00
26192;BME280;13935;55.672;37.764;2022-10-28T05:32:28;100716.03;;;6.80;100.00
26192;BME280;13935;55.672;37.764;2022-10-28T05:33:30;100714.66;;;6.98;100.00
26192;BME280;13935;55.672;37.764;2022-10-28T05:34:35;100720.41;;;7.05;100.00
26192;BME280;13935;55.672;37.764;2022-10-28T05:35:40;100719.84;;;6.99;100.00
26192;BME280;13935;55.672;37.764;2022-10-28T05:36:44;100717.47;;;7.09;100.00
26192;BME280;13935;55.672;37.764;2022-10-28T05:37:49;100717.56;;;7.13;100.00
26192;BME280;13935;55.672;37.764;2022-10-28T05:38:54;100709.66;;;7.11;100.00
26192;BME280;13935;55.672;37.764;2022-10-28T05:40:07;100717.34;;;7.06;100.00
26192;BME280;13935;55.672;37.764;2022-10-28T05:41:14;100717.22;;;7.03;100.00
26192;BME280;13935;55.672;37.764;2022-10-28T05:42:20;100717.47;;;7.21;100.00
26192;BME280;13935;55.672;37.764;2022-10-28T05:43:22;100721.00;;;7.22;100.00
26192;BME280;13935;55.672;37.764;2022-10-28T05:44:40;100723.63;;;7.07;100.00
26192;BME280;13935;55.672;37.764;2022-10-28T05:45:55;100717.91;;;7.23;100.00
26192;BME280;13935;55.672;37.764;2022-10-28T05:47:01;100715.38;;;7.18;100.00
26192;BME280;13935;55.672;37.764;2022-10-28T05:48:48;100719.03;;;7.10;100.00
26192;BME280;13935;55.672;37.764;2022-10-28T05:50:24;100720.41;;;7.16;100.00
26192;BME280;13935;55.672;37.764;2022-10-28T05:51:27;100722.59;;;7.11;100.00
26192;BME280;13935;55.672;37.764;2022-10-28T05:52:50;100722.13;;;7.09;100.00
26192;BME280;13935;55.672;37.764;2022-10-28T05:54:34;100734.19;;;7.16;100.00
26192;BME280;13935;55.672;37.764;2022-10-28T05:55:38;100729.03;;;7.15;100.00
26192;BME280;13935;55.672;37.764;2022-10-28T05:57:13;100728.00;;;7.19;100.00
26192;BME280;13935;55.672;37.764;2022-10-28T05:58:16;100733.63;;;7.23;100.00
26192;BME280;13935;55.672;37.764;2022-10-28T05:59:21;100735.47;;;7.19;100.00
26192;BME280;13935;55.672;37.764;2022-10-28T06:00:48;100728.88;;;7.00;100.00
26192;BME280;13935;55.672;37.764;2022-10-28T06:01:52;100735.34;;;7.04;100.00
26192;BME280;13935;55.672;37.764;2022-10-28T06:03:06;100727.84;;;6.80;100.00
26192;BME280;13935;55.672;37.764;2022-10-28T06:04:12;100730.00;;;6.87;100.00
26192;BME280;13935;55.672;37.764;2022-10-28T06:05:17;100729.00;;;6.91;100.00
26192;BME280;13935;55.672;37.764;2022-10-28T06:06:20;100726.94;;;6.88;100.00
26192;BME280;13935;55.672;37.764;2022-10-28T06:07:28;100726.38;;;6.95;100.00
26192;BME280;13935;55.672;37.764;2022-10-28T06:08:30;100727.97;;;6.96;100.00
26192;BME280;13935;55.672;37.764;2022-10-28T06:09:38;100722.59;;;6.99;100.00
26192;BME280;13935;55.672;37.764;2022-10-28T06:10:41;100728.66;;;6.93;100.00
26192;BME280;13935;55.672;37.764;2022-10-28T06:12:00;100724.75;;;6.94;100.00
26192;BME280;13935;55.672;37.764;2022-10-28T06:13:24;100721.09;;;7.02;100.00
26192;BME280;13935;55.672;37.764;2022-10-28T06:14:27;100725.84;;;7.13;100.00
26192;BME280;13935;55.672;37.764;2022-10-28T06:15:31;100721.13;;;7.13;100.00
26192;BME280;13935;55.672;37.764;2022-10-28T06:16:33;100722.72;;;7.14;100.00